createdAt,value
2018-05-10T00:00:45.756Z,0
2018-05-10T00:01:45.779Z,0
2018-05-10T00:02:46.047Z,0
2018-05-10T00:03:45.923Z,0
2018-05-10T00:04:46.098Z,0
2018-05-10T00:05:45.614Z,0
2018-05-10T00:06:45.891Z,0
2018-05-10T00:07:45.926Z,0
2018-05-10T00:08:46.421Z,0
2018-05-10T00:09:45.966Z,0
2018-05-10T00:10:46.248Z,0
2018-05-10T00:11:45.756Z,0
2018-05-10T00:12:46.287Z,0
2018-05-10T00:13:46.150Z,0
2018-05-10T00:14:45.814Z,0
2018-05-10T00:15:45.842Z,0
2018-05-10T00:16:46.391Z,0
2018-05-10T00:17:45.881Z,0
2018-05-10T00:18:46.159Z,0
2018-05-10T00:19:46.180Z,0
2018-05-10T00:20:46.472Z,0
2018-05-10T00:21:46.492Z,0
2018-05-10T00:22:46.522Z,0
2018-05-10T00:23:46.277Z,0
2018-05-10T00:24:46.293Z,0
2018-05-10T00:25:46.296Z,0
2018-05-10T00:26:46.317Z,0
2018-05-10T00:27:46.413Z,0
2018-05-10T00:28:46.760Z,0
2018-05-10T00:29:46.638Z,0
2018-05-10T00:30:46.410Z,0
2018-05-10T00:31:45.960Z,0
2018-05-10T00:32:46.471Z,0
2018-05-10T00:33:46.550Z,0
2018-05-10T00:34:46.794Z,0
2018-05-10T00:35:46.539Z,0
2018-05-10T00:36:46.560Z,0
2018-05-10T00:37:46.842Z,0
2018-05-10T00:38:46.614Z,0
2018-05-10T00:39:46.629Z,0
2018-05-10T00:40:46.952Z,0
2018-05-10T00:41:46.654Z,0
2018-05-10T00:42:46.688Z,0
2018-05-10T00:43:46.756Z,0
2018-05-10T00:44:46.988Z,0
2018-05-10T00:45:46.995Z,0
2018-05-10T00:46:47.023Z,0
2018-05-10T00:47:47.044Z,0
2018-05-10T00:48:46.815Z,0
2018-05-10T00:49:46.852Z,0
2018-05-10T00:50:47.115Z,0
2018-05-10T00:51:46.891Z,0
2018-05-10T00:52:46.913Z,0
2018-05-10T00:53:47.199Z,0
2018-05-10T00:54:47.236Z,0
2018-05-10T00:55:47.240Z,0
2018-05-10T00:56:47.007Z,0
2018-05-10T00:57:47.291Z,0
2018-05-10T00:58:47.102Z,0
2018-05-10T00:59:47.140Z,0
2018-05-10T01:00:47.345Z,0
2018-05-10T01:01:47.123Z,0
2018-05-10T01:02:47.136Z,0
2018-05-10T01:03:47.163Z,0
2018-05-10T01:04:46.687Z,0
2018-05-10T01:05:47.457Z,0
2018-05-10T01:06:47.229Z,0
2018-05-10T01:07:47.248Z,0
2018-05-10T01:08:47.299Z,0
2018-05-10T01:09:46.790Z,0
2018-05-10T01:10:47.577Z,0
2018-05-10T01:11:47.104Z,0
2018-05-10T01:12:47.620Z,0
2018-05-10T01:13:47.710Z,0
2018-05-10T01:14:47.405Z,0
2018-05-10T01:15:47.683Z,0
2018-05-10T01:16:47.459Z,0
2018-05-10T01:17:47.468Z,0
2018-05-10T01:18:47.535Z,0
2018-05-10T01:19:47.515Z,0
2018-05-10T01:20:47.524Z,0
2018-05-10T01:21:47.823Z,0
2018-05-10T01:22:47.576Z,0
2018-05-10T01:23:47.095Z,0
2018-05-10T01:24:47.877Z,0
2018-05-10T01:25:47.897Z,0
2018-05-10T01:26:47.932Z,0
2018-05-10T01:27:47.958Z,0
2018-05-10T01:28:48.020Z,0
2018-05-10T01:29:48.001Z,0
2018-05-10T01:30:47.549Z,0
2018-05-10T01:31:48.040Z,0
2018-05-10T01:32:48.073Z,0
2018-05-10T01:33:47.572Z,0
2018-05-10T01:34:48.105Z,0
2018-05-10T01:35:47.884Z,0
2018-05-10T01:36:47.688Z,0
2018-05-10T01:37:48.173Z,0
2018-05-10T01:38:48.213Z,0
2018-05-10T01:39:47.455Z,0
2018-05-10T01:40:47.728Z,0
2018-05-10T01:41:48.003Z,0
2018-05-10T01:42:48.283Z,0
2018-05-10T01:43:48.103Z,0
2018-05-10T01:44:48.067Z,0
2018-05-10T01:45:48.342Z,0
2018-05-10T01:46:48.370Z,0
2018-05-10T01:47:48.138Z,0
2018-05-10T01:48:48.157Z,0
2018-05-10T01:49:48.188Z,0
2018-05-10T01:50:48.199Z,0
2018-05-10T01:51:48.216Z,0
2018-05-10T01:52:48.459Z,0
2018-05-10T01:53:48.486Z,0
2018-05-10T01:54:48.550Z,0
2018-05-10T01:55:48.561Z,0
2018-05-10T01:56:48.606Z,0
2018-05-10T01:57:48.094Z,0
2018-05-10T01:58:48.932Z,0
2018-05-10T01:59:48.660Z,0
2018-05-10T02:00:48.677Z,0
2018-05-10T02:01:48.725Z,0
2018-05-10T02:02:48.721Z,0
2018-05-10T02:03:48.231Z,0
2018-05-10T02:04:48.768Z,0
2018-05-10T02:05:48.524Z,0
2018-05-10T02:06:48.762Z,0
2018-05-10T02:07:48.833Z,0
2018-05-10T02:08:48.593Z,0
2018-05-10T02:09:48.363Z,0
2018-05-10T02:10:48.970Z,0
2018-05-10T02:11:48.906Z,0
2018-05-10T02:12:47.926Z,0
2018-05-10T02:13:48.696Z,0
2018-05-10T02:14:48.850Z,0
2018-05-10T02:15:48.753Z,0
2018-05-10T02:16:49.020Z,0
2018-05-10T02:17:49.036Z,0
2018-05-10T02:18:49.066Z,0
2018-05-10T02:19:49.044Z,0
2018-05-10T02:20:49.066Z,0
2018-05-10T02:21:49.095Z,0
2018-05-10T02:22:48.610Z,0
2018-05-10T02:23:49.126Z,0
2018-05-10T02:24:48.905Z,0
2018-05-10T02:25:48.928Z,0
2018-05-10T02:26:49.196Z,0
2018-05-10T02:27:49.223Z,0
2018-05-10T02:28:49.021Z,0
2018-05-10T02:29:49.029Z,0
2018-05-10T02:30:49.317Z,0
2018-05-10T02:31:48.333Z,0
2018-05-10T02:32:49.106Z,0
2018-05-10T02:33:49.139Z,0
2018-05-10T02:34:49.409Z,0
2018-05-10T02:35:49.429Z,0
2018-05-10T02:36:49.185Z,0
2018-05-10T02:37:49.496Z,0
2018-05-10T02:38:49.242Z,0
2018-05-10T02:39:49.524Z,0
2018-05-10T02:40:49.307Z,0
2018-05-10T02:41:49.565Z,0
2018-05-10T02:42:49.085Z,0
2018-05-10T02:43:49.354Z,0
2018-05-10T02:44:49.428Z,0
2018-05-10T02:45:49.656Z,0
2018-05-10T02:46:49.435Z,0
2018-05-10T02:47:49.689Z,0
2018-05-10T02:48:49.782Z,0
2018-05-10T02:49:49.481Z,0
2018-05-10T02:50:49.496Z,0
2018-05-10T02:51:49.783Z,0
2018-05-10T02:52:49.792Z,0
2018-05-10T02:53:49.630Z,0
2018-05-10T02:54:49.835Z,0
2018-05-10T02:55:49.871Z,0
2018-05-10T02:56:49.648Z,0
2018-05-10T02:57:49.411Z,0
2018-05-10T02:58:49.940Z,0
2018-05-10T02:59:49.502Z,0
2018-05-10T03:00:49.740Z,0
2018-05-10T03:01:49.787Z,0
2018-05-10T03:02:49.769Z,0
2018-05-10T03:03:49.809Z,0
2018-05-10T03:04:50.060Z,0
2018-05-10T03:05:49.561Z,0
2018-05-10T03:06:50.100Z,0
2018-05-10T03:07:49.640Z,0
2018-05-10T03:08:49.878Z,0
2018-05-10T03:09:49.905Z,0
2018-05-10T03:10:49.678Z,0
2018-05-10T03:11:50.205Z,0
2018-05-10T03:12:50.234Z,0
2018-05-10T03:13:49.737Z,0
2018-05-10T03:14:50.310Z,0
2018-05-10T03:15:50.276Z,0
2018-05-10T03:16:49.793Z,0
2018-05-10T03:17:49.808Z,0
2018-05-10T03:18:50.082Z,0
2018-05-10T03:19:50.387Z,0
2018-05-10T03:20:50.145Z,0
2018-05-10T03:21:50.422Z,0
2018-05-10T03:22:50.189Z,0
2018-05-10T03:23:50.188Z,0
2018-05-10T03:24:50.231Z,0
2018-05-10T03:25:50.258Z,0
2018-05-10T03:26:50.025Z,0
2018-05-10T03:27:50.542Z,0
2018-05-10T03:28:50.068Z,0
2018-05-10T03:29:50.141Z,0
2018-05-10T03:30:50.632Z,0
2018-05-10T03:31:50.399Z,0
2018-05-10T03:32:50.667Z,0
2018-05-10T03:33:50.682Z,0
2018-05-10T03:34:50.448Z,0
2018-05-10T03:35:50.532Z,0
2018-05-10T03:36:50.492Z,0
2018-05-10T03:37:50.776Z,0
2018-05-10T03:38:50.272Z,5
2018-05-10T03:39:50.044Z,5
2018-05-10T03:40:50.831Z,5
2018-05-10T03:41:50.590Z,5
2018-05-10T03:42:50.616Z,5
2018-05-10T03:43:50.638Z,5
2018-05-10T03:44:50.717Z,5
2018-05-10T03:45:50.937Z,5
2018-05-10T03:46:50.711Z,5
2018-05-10T03:47:50.724Z,10
2018-05-10T03:48:50.743Z,10
2018-05-10T03:49:50.765Z,10
2018-05-10T03:50:50.537Z,10
2018-05-10T03:51:51.060Z,10
2018-05-10T03:52:51.091Z,10
2018-05-10T03:53:50.868Z,10
2018-05-10T03:54:50.617Z,15
2018-05-10T03:55:51.172Z,15
2018-05-10T03:56:50.924Z,15
2018-05-10T03:57:50.937Z,15
2018-05-10T03:58:50.956Z,15
2018-05-10T03:59:50.993Z,20
2018-05-10T04:00:50.966Z,20
2018-05-10T04:01:50.993Z,20
2018-05-10T04:02:51.009Z,20
2018-05-10T04:03:51.317Z,20
2018-05-10T04:04:51.136Z,25
2018-05-10T04:05:51.107Z,25
2018-05-10T04:06:50.879Z,25
2018-05-10T04:07:51.416Z,25
2018-05-10T04:08:51.156Z,30
2018-05-10T04:09:51.201Z,30
2018-05-10T04:10:51.217Z,30
2018-05-10T04:11:51.249Z,30
2018-05-10T04:12:51.517Z,35
2018-05-10T04:13:51.536Z,40
2018-05-10T04:14:51.561Z,40
2018-05-10T04:15:51.323Z,45
2018-05-10T04:16:51.345Z,45
2018-05-10T04:17:51.614Z,40
2018-05-10T04:18:51.636Z,35
2018-05-10T04:19:51.544Z,40
2018-05-10T04:20:51.430Z,40
2018-05-10T04:21:51.695Z,40
2018-05-10T04:22:51.766Z,40
2018-05-10T04:23:51.487Z,40
2018-05-10T04:24:51.504Z,40
2018-05-10T04:25:51.749Z,45
2018-05-10T04:26:51.817Z,45
2018-05-10T04:27:52.107Z,45
2018-05-10T04:28:51.865Z,50
2018-05-10T04:29:51.624Z,50
2018-05-10T04:30:51.645Z,55
2018-05-10T04:31:51.924Z,55
2018-05-10T04:32:51.694Z,55
2018-05-10T04:33:51.457Z,55
2018-05-10T04:34:52.017Z,55
2018-05-10T04:35:52.280Z,50
2018-05-10T04:36:51.503Z,55
2018-05-10T04:37:51.271Z,60
2018-05-10T04:38:51.544Z,60
2018-05-10T04:39:51.563Z,60
2018-05-10T04:40:52.105Z,65
2018-05-10T04:41:52.118Z,65
2018-05-10T04:42:51.893Z,65
2018-05-10T04:43:51.924Z,65
2018-05-10T04:44:51.947Z,65
2018-05-10T04:45:52.219Z,70
2018-05-10T04:46:52.245Z,70
2018-05-10T04:47:51.759Z,70
2018-05-10T04:48:51.784Z,70
2018-05-10T04:49:51.598Z,70
2018-05-10T04:50:52.097Z,75
2018-05-10T04:51:51.846Z,80
2018-05-10T04:52:52.398Z,80
2018-05-10T04:53:52.397Z,80
2018-05-10T04:54:52.857Z,85
2018-05-10T04:55:52.438Z,80
2018-05-10T04:56:52.468Z,85
2018-05-10T04:57:51.758Z,90
2018-05-10T04:58:52.251Z,100
2018-05-10T04:59:52.529Z,100
2018-05-10T05:00:52.516Z,100
2018-05-10T05:01:52.290Z,105
2018-05-10T05:02:52.058Z,100
2018-05-10T05:03:52.077Z,100
2018-05-10T05:04:52.412Z,105
2018-05-10T05:05:52.145Z,105
2018-05-10T05:06:52.173Z,105
2018-05-10T05:07:52.699Z,110
2018-05-10T05:08:53.389Z,110
2018-05-10T05:09:52.473Z,115
2018-05-10T05:10:52.253Z,115
2018-05-10T05:11:52.845Z,115
2018-05-10T05:12:52.423Z,115
2018-05-10T05:13:52.549Z,120
2018-05-10T05:14:52.827Z,120
2018-05-10T05:15:52.604Z,125
2018-05-10T05:16:52.877Z,125
2018-05-10T05:17:52.916Z,125
2018-05-10T05:18:52.927Z,130
2018-05-10T05:19:52.979Z,125
2018-05-10T05:20:52.195Z,125
2018-05-10T05:21:52.971Z,130
2018-05-10T05:22:52.775Z,130
2018-05-10T05:23:53.046Z,140
2018-05-10T05:24:53.071Z,140
2018-05-10T05:25:53.093Z,155
2018-05-10T05:26:53.277Z,160
2018-05-10T05:27:53.143Z,150
2018-05-10T05:28:52.656Z,145
2018-05-10T05:29:53.194Z,140
2018-05-10T05:30:52.950Z,150
2018-05-10T05:31:53.238Z,160
2018-05-10T05:32:52.871Z,160
2018-05-10T05:33:52.766Z,165
2018-05-10T05:34:53.089Z,165
2018-05-10T05:35:53.318Z,170
2018-05-10T05:36:53.091Z,170
2018-05-10T05:37:53.107Z,170
2018-05-10T05:38:53.128Z,175
2018-05-10T05:39:52.893Z,175
2018-05-10T05:40:53.177Z,175
2018-05-10T05:41:53.200Z,175
2018-05-10T05:42:53.218Z,180
2018-05-10T05:43:52.982Z,175
2018-05-10T05:44:53.253Z,175
2018-05-10T05:45:53.034Z,170
2018-05-10T05:46:53.314Z,170
2018-05-10T05:47:53.578Z,170
2018-05-10T05:48:53.337Z,170
2018-05-10T05:49:53.159Z,165
2018-05-10T05:50:53.383Z,165
2018-05-10T05:51:53.410Z,165
2018-05-10T05:52:53.175Z,165
2018-05-10T05:53:53.459Z,165
2018-05-10T05:54:53.832Z,170
2018-05-10T05:55:53.487Z,170
2018-05-10T05:56:53.515Z,170
2018-05-10T05:57:53.797Z,170
2018-05-10T05:58:53.563Z,175
2018-05-10T05:59:53.334Z,175
2018-05-10T06:00:53.445Z,175
2018-05-10T06:01:53.640Z,175
2018-05-10T06:02:53.655Z,175
2018-05-10T06:03:53.928Z,175
2018-05-10T06:04:53.860Z,180
2018-05-10T06:05:53.991Z,180
2018-05-10T06:06:54.026Z,180
2018-05-10T06:07:53.787Z,180
2018-05-10T06:08:54.400Z,180
2018-05-10T06:09:53.834Z,180
2018-05-10T06:10:53.603Z,180
2018-05-10T06:11:53.883Z,185
2018-05-10T06:12:54.138Z,185
2018-05-10T06:13:54.189Z,185
2018-05-10T06:14:53.950Z,190
2018-05-10T06:15:54.905Z,190
2018-05-10T06:16:53.997Z,190
2018-05-10T06:17:54.269Z,190
2018-05-10T06:18:54.301Z,190
2018-05-10T06:19:54.368Z,195
2018-05-10T06:20:54.340Z,195
2018-05-10T06:21:54.371Z,195
2018-05-10T06:22:53.872Z,195
2018-05-10T06:23:54.404Z,195
2018-05-10T06:24:54.943Z,195
2018-05-10T06:25:54.458Z,195
2018-05-10T06:26:54.479Z,200
2018-05-10T06:27:54.505Z,200
2018-05-10T06:28:54.528Z,200
2018-05-10T06:29:54.036Z,200
2018-05-10T06:30:54.318Z,200
2018-05-10T06:31:54.333Z,200
2018-05-10T06:32:54.622Z,205
2018-05-10T06:33:54.719Z,205
2018-05-10T06:34:54.725Z,205
2018-05-10T06:35:54.429Z,205
2018-05-10T06:36:54.458Z,205
2018-05-10T06:37:54.481Z,205
2018-05-10T06:38:54.249Z,205
2018-05-10T06:39:54.252Z,210
2018-05-10T06:40:54.531Z,210
2018-05-10T06:41:54.891Z,210
2018-05-10T06:42:54.837Z,210
2018-05-10T06:43:54.600Z,210
2018-05-10T06:44:54.369Z,210
2018-05-10T06:45:54.651Z,215
2018-05-10T06:46:55.150Z,215
2018-05-10T06:47:54.708Z,215
2018-05-10T06:48:54.989Z,215
2018-05-10T06:49:55.065Z,215
2018-05-10T06:50:55.037Z,215
2018-05-10T06:51:55.061Z,215
2018-05-10T06:52:54.827Z,215
2018-05-10T06:53:54.854Z,215
2018-05-10T06:54:55.259Z,215
2018-05-10T06:55:55.171Z,215
2018-05-10T06:56:55.186Z,215
2018-05-10T06:57:55.201Z,215
2018-05-10T06:58:55.231Z,220
2018-05-10T06:59:55.252Z,220
2018-05-10T07:00:55.276Z,220
2018-05-10T07:01:55.048Z,220
2018-05-10T07:02:55.318Z,220
2018-05-10T07:03:54.834Z,225
2018-05-10T07:04:55.165Z,225
2018-05-10T07:05:55.138Z,225
2018-05-10T07:06:55.458Z,225
2018-05-10T07:07:55.436Z,225
2018-05-10T07:08:54.962Z,230
2018-05-10T07:09:56.285Z,230
2018-05-10T07:10:55.253Z,235
2018-05-10T07:11:55.557Z,230
2018-05-10T07:12:55.314Z,235
2018-05-10T07:13:55.585Z,235
2018-05-10T07:14:55.363Z,235
2018-05-10T07:15:55.124Z,240
2018-05-10T07:16:55.667Z,245
2018-05-10T07:17:55.688Z,240
2018-05-10T07:18:55.718Z,240
2018-05-10T07:19:55.277Z,240
2018-05-10T07:20:55.754Z,240
2018-05-10T07:21:55.535Z,245
2018-05-10T07:22:55.877Z,245
2018-05-10T07:23:55.318Z,245
2018-05-10T07:24:55.590Z,245
2018-05-10T07:25:55.870Z,255
2018-05-10T07:26:55.411Z,255
2018-05-10T07:27:55.665Z,250
2018-05-10T07:28:55.948Z,250
2018-05-10T07:29:55.965Z,250
2018-05-10T07:30:55.813Z,255
2018-05-10T07:31:56.011Z,255
2018-05-10T07:32:56.208Z,255
2018-05-10T07:33:55.554Z,260
2018-05-10T07:34:57.100Z,260
2018-05-10T07:35:55.860Z,265
2018-05-10T07:36:55.882Z,265
2018-05-10T07:37:55.657Z,270
2018-05-10T07:38:56.188Z,270
2018-05-10T07:39:56.009Z,275
2018-05-10T07:40:55.983Z,280
2018-05-10T07:41:56.083Z,280
2018-05-10T07:42:56.270Z,285
2018-05-10T07:43:56.315Z,285
2018-05-10T07:44:56.077Z,290
2018-05-10T07:45:55.853Z,295
2018-05-10T07:46:56.124Z,305
2018-05-10T07:47:56.150Z,310
2018-05-10T07:48:56.183Z,320
2018-05-10T07:49:56.201Z,330
2018-05-10T07:50:56.488Z,340
2018-05-10T07:51:56.558Z,345
2018-05-10T07:52:56.524Z,365
2018-05-10T07:53:56.292Z,380
2018-05-10T07:54:56.365Z,390
2018-05-10T07:55:56.347Z,395
2018-05-10T07:56:56.366Z,400
2018-05-10T07:57:56.389Z,400
2018-05-10T07:58:56.161Z,395
2018-05-10T07:59:55.954Z,345
2018-05-10T08:00:56.664Z,390
2018-05-10T08:01:56.490Z,385
2018-05-10T08:02:56.777Z,385
2018-05-10T08:03:56.617Z,320
2018-05-10T08:04:56.312Z,405
2018-05-10T08:05:56.338Z,410
2018-05-10T08:06:56.371Z,415
2018-05-10T08:07:56.891Z,420
2018-05-10T08:08:56.941Z,430
2018-05-10T08:09:56.746Z,440
2018-05-10T08:10:56.977Z,450
2018-05-10T08:11:56.755Z,460
2018-05-10T08:12:56.770Z,465
2018-05-10T08:13:56.810Z,475
2018-05-10T08:14:56.573Z,475
2018-05-10T08:15:56.852Z,480
2018-05-10T08:16:56.720Z,480
2018-05-10T08:17:57.150Z,480
2018-05-10T08:18:56.926Z,485
2018-05-10T08:19:57.196Z,485
2018-05-10T08:20:57.230Z,485
2018-05-10T08:21:57.028Z,485
2018-05-10T08:22:56.783Z,470
2018-05-10T08:23:57.050Z,420
2018-05-10T08:24:57.386Z,385
2018-05-10T08:25:57.097Z,380
2018-05-10T08:26:56.875Z,385
2018-05-10T08:27:57.158Z,380
2018-05-10T08:28:57.428Z,380
2018-05-10T08:29:58.660Z,465
2018-05-10T08:30:57.483Z,485
2018-05-10T08:31:57.256Z,480
2018-05-10T08:32:56.775Z,440
2018-05-10T08:33:57.308Z,380
2018-05-10T08:34:57.343Z,395
2018-05-10T08:35:57.614Z,415
2018-05-10T08:36:57.514Z,495
2018-05-10T08:37:57.232Z,495
2018-05-10T08:38:57.463Z,490
2018-05-10T08:39:57.532Z,480
2018-05-10T08:40:57.754Z,480
2018-05-10T08:41:57.522Z,480
2018-05-10T08:42:57.386Z,475
2018-05-10T08:43:57.568Z,465
2018-05-10T08:44:57.987Z,465
2018-05-10T08:45:57.614Z,460
2018-05-10T08:46:57.663Z,460
2018-05-10T08:47:57.673Z,465
2018-05-10T08:48:57.189Z,470
2018-05-10T08:49:58.076Z,470
2018-05-10T08:50:57.280Z,475
2018-05-10T08:51:58.833Z,485
2018-05-10T08:52:58.057Z,490
2018-05-10T08:53:58.083Z,500
2018-05-10T08:54:58.171Z,520
2018-05-10T08:55:57.626Z,520
2018-05-10T08:56:57.952Z,525
2018-05-10T08:57:57.932Z,525
2018-05-10T08:58:57.950Z,450
2018-05-10T08:59:58.105Z,420
2018-05-10T09:00:58.287Z,470
2018-05-10T09:01:57.785Z,410
2018-05-10T09:02:58.318Z,355
2018-05-10T09:03:58.357Z,445
2018-05-10T09:04:58.368Z,450
2018-05-10T09:05:58.134Z,440
2018-05-10T09:06:58.428Z,430
2018-05-10T09:07:57.933Z,420
2018-05-10T09:08:58.458Z,420
2018-05-10T09:09:58.557Z,415
2018-05-10T09:10:58.262Z,420
2018-05-10T09:11:58.546Z,425
2018-05-10T09:12:58.327Z,415
2018-05-10T09:13:58.352Z,285
2018-05-10T09:14:58.384Z,285
2018-05-10T09:15:58.660Z,410
2018-05-10T09:16:58.437Z,415
2018-05-10T09:17:58.709Z,415
2018-05-10T09:18:58.478Z,415
2018-05-10T09:19:58.768Z,415
2018-05-10T09:20:58.780Z,410
2018-05-10T09:21:58.814Z,410
2018-05-10T09:22:58.592Z,410
2018-05-10T09:23:58.867Z,415
2018-05-10T09:24:58.945Z,420
2018-05-10T09:25:59.015Z,420
2018-05-10T09:26:58.993Z,430
2018-05-10T09:27:58.969Z,430
2018-05-10T09:28:58.503Z,435
2018-05-10T09:29:59.019Z,445
2018-05-10T09:30:59.056Z,475
2018-05-10T09:31:58.815Z,500
2018-05-10T09:32:58.852Z,495
2018-05-10T09:33:59.294Z,500
2018-05-10T09:34:58.642Z,495
2018-05-10T09:35:58.931Z,500
2018-05-10T09:36:58.971Z,500
2018-05-10T09:37:59.028Z,505
2018-05-10T09:38:59.251Z,380
2018-05-10T09:39:59.077Z,515
2018-05-10T09:40:59.384Z,520
2018-05-10T09:41:58.825Z,525
2018-05-10T09:42:59.099Z,535
2018-05-10T09:43:59.387Z,535
2018-05-10T09:44:59.509Z,540
2018-05-10T09:45:59.184Z,550
2018-05-10T09:46:59.212Z,560
2018-05-10T09:47:58.983Z,570
2018-05-10T09:48:59.534Z,580
2018-05-10T09:49:59.557Z,590
2018-05-10T09:50:59.068Z,595
2018-05-10T09:51:59.112Z,615
2018-05-10T09:52:59.126Z,635
2018-05-10T09:53:59.415Z,640
2018-05-10T09:54:59.742Z,655
2018-05-10T09:55:59.469Z,660
2018-05-10T09:56:59.747Z,665
2018-05-10T09:57:59.776Z,665
2018-05-10T09:58:59.802Z,665
2018-05-10T09:59:59.443Z,680
2018-05-10T10:00:59.865Z,685
2018-05-10T10:01:59.640Z,695
2018-05-10T10:02:59.422Z,700
2018-05-10T10:03:59.441Z,710
2018-05-10T10:04:59.980Z,710
2018-05-10T10:06:00.037Z,715
2018-05-10T10:06:59.517Z,710
2018-05-10T10:08:00.031Z,660
2018-05-10T10:09:00.060Z,585
2018-05-10T10:10:00.143Z,575
2018-05-10T10:11:00.137Z,565
2018-05-10T10:12:00.146Z,485
2018-05-10T10:13:00.174Z,550
2018-05-10T10:13:59.966Z,505
2018-05-10T10:14:59.733Z,515
2018-05-10T10:16:00.348Z,495
2018-05-10T10:17:00.359Z,475
2018-05-10T10:18:00.106Z,625
2018-05-10T10:19:00.401Z,440
2018-05-10T10:19:59.918Z,615
2018-05-10T10:20:59.692Z,610
2018-05-10T10:22:00.483Z,605
2018-05-10T10:23:00.271Z,605
2018-05-10T10:24:00.299Z,610
2018-05-10T10:25:00.635Z,620
2018-05-10T10:26:00.435Z,630
2018-05-10T10:27:00.124Z,630
2018-05-10T10:28:00.660Z,625
2018-05-10T10:29:00.437Z,590
2018-05-10T10:30:00.472Z,425
2018-05-10T10:31:00.755Z,655
2018-05-10T10:32:00.529Z,655
2018-05-10T10:33:00.555Z,650
2018-05-10T10:34:00.586Z,645
2018-05-10T10:35:00.912Z,640
2018-05-10T10:36:00.383Z,640
2018-05-10T10:37:00.668Z,645
2018-05-10T10:38:00.715Z,645
2018-05-10T10:39:00.731Z,660
2018-05-10T10:40:00.781Z,665
2018-05-10T10:41:00.817Z,675
2018-05-10T10:42:00.827Z,680
2018-05-10T10:43:00.606Z,675
2018-05-10T10:44:00.939Z,655
2018-05-10T10:45:01.175Z,630
2018-05-10T10:46:00.713Z,370
2018-05-10T10:47:01.240Z,375
2018-05-10T10:48:00.523Z,390
2018-05-10T10:49:00.788Z,435
2018-05-10T10:50:01.102Z,705
2018-05-10T10:51:01.089Z,720
2018-05-10T10:52:01.409Z,710
2018-05-10T10:53:01.265Z,670
2018-05-10T10:54:01.755Z,735
2018-05-10T10:55:01.223Z,760
2018-05-10T10:56:01.523Z,780
2018-05-10T10:57:01.538Z,810
2018-05-10T10:58:01.322Z,825
2018-05-10T10:59:01.608Z,765
2018-05-10T11:00:02.029Z,700
2018-05-10T11:01:01.667Z,745
2018-05-10T11:02:01.603Z,460
2018-05-10T11:03:01.488Z,430
2018-05-10T11:04:01.764Z,585
2018-05-10T11:05:01.079Z,390
2018-05-10T11:06:01.548Z,385
2018-05-10T11:07:01.582Z,405
2018-05-10T11:08:01.863Z,440
2018-05-10T11:09:01.931Z,480
2018-05-10T11:10:01.916Z,510
2018-05-10T11:11:01.699Z,805
2018-05-10T11:12:01.727Z,770
2018-05-10T11:13:02.012Z,495
2018-05-10T11:14:01.802Z,555
2018-05-10T11:15:02.313Z,635
2018-05-10T11:16:01.926Z,805
2018-05-10T11:17:01.433Z,820
2018-05-10T11:18:02.185Z,845
2018-05-10T11:19:01.939Z,875
2018-05-10T11:20:02.273Z,570
2018-05-10T11:21:01.843Z,910
2018-05-10T11:22:02.297Z,755
2018-05-10T11:23:02.299Z,935
2018-05-10T11:24:02.105Z,520
2018-05-10T11:25:02.157Z,525
2018-05-10T11:26:02.162Z,575
2018-05-10T11:27:02.464Z,560
2018-05-10T11:28:02.478Z,480
2018-05-10T11:29:02.253Z,470
2018-05-10T11:30:02.291Z,480
2018-05-10T11:31:01.805Z,505
2018-05-10T11:32:02.592Z,550
2018-05-10T11:33:02.849Z,600
2018-05-10T11:34:02.663Z,990
2018-05-10T11:35:02.487Z,890
2018-05-10T11:36:02.475Z,600
2018-05-10T11:37:02.496Z,865
2018-05-10T11:38:02.783Z,605
2018-05-10T11:39:02.376Z,655
2018-05-10T11:40:02.836Z,1155
2018-05-10T11:41:02.884Z,1140
2018-05-10T11:42:02.659Z,1095
2018-05-10T11:43:02.939Z,1095
2018-05-10T11:44:02.700Z,1065
2018-05-10T11:45:03.016Z,1195
2018-05-10T11:46:02.759Z,1125
2018-05-10T11:47:03.051Z,1070
2018-05-10T11:48:03.116Z,835
2018-05-10T11:49:02.836Z,800
2018-05-10T11:50:02.868Z,605
2018-05-10T11:51:03.206Z,1005
2018-05-10T11:52:02.955Z,910
2018-05-10T11:53:02.983Z,1285
2018-05-10T11:54:03.121Z,1195
2018-05-10T11:55:03.061Z,1135
2018-05-10T11:56:02.866Z,1255
2018-05-10T11:57:03.358Z,1405
2018-05-10T11:58:03.394Z,1055
2018-05-10T11:59:03.455Z,1255
2018-05-10T12:00:03.503Z,1190
2018-05-10T12:01:03.259Z,940
2018-05-10T12:02:03.265Z,520
2018-05-10T12:03:03.298Z,385
2018-05-10T12:04:03.587Z,375
2018-05-10T12:05:03.444Z,400
2018-05-10T12:06:03.527Z,445
2018-05-10T12:07:03.408Z,490
2018-05-10T12:08:03.452Z,525
2018-05-10T12:09:03.481Z,555
2018-05-10T12:10:03.510Z,605
2018-05-10T12:11:03.528Z,1120
2018-05-10T12:12:03.817Z,1535
2018-05-10T12:13:03.604Z,1645
2018-05-10T12:14:03.365Z,525
2018-05-10T12:15:03.661Z,1680
2018-05-10T12:16:03.962Z,1580
2018-05-10T12:17:03.226Z,1270
2018-05-10T12:18:04.014Z,330
2018-05-10T12:19:04.053Z,325
2018-05-10T12:20:03.849Z,340
2018-05-10T12:21:04.225Z,365
2018-05-10T12:22:04.144Z,395
2018-05-10T12:23:03.907Z,460
2018-05-10T12:24:03.960Z,490
2018-05-10T12:25:04.092Z,485
2018-05-10T12:26:03.795Z,500
2018-05-10T12:27:03.786Z,525
2018-05-10T12:28:04.392Z,590
2018-05-10T12:29:04.463Z,2000
2018-05-10T12:30:04.389Z,1935
2018-05-10T12:31:04.587Z,2030
2018-05-10T12:32:03.898Z,1900
2018-05-10T12:33:04.481Z,1880
2018-05-10T12:34:04.505Z,1980
2018-05-10T12:35:04.582Z,1950
2018-05-10T12:36:04.650Z,1870
2018-05-10T12:37:03.873Z,1890
2018-05-10T12:38:04.643Z,1975
2018-05-10T12:39:04.727Z,2035
2018-05-10T12:40:04.726Z,2185
2018-05-10T12:41:04.740Z,2185
2018-05-10T12:42:04.541Z,2170
2018-05-10T12:43:04.794Z,2120
2018-05-10T12:44:04.064Z,2005
2018-05-10T12:45:04.614Z,2085
2018-05-10T12:46:04.364Z,890
2018-05-10T12:47:04.404Z,2240
2018-05-10T12:48:04.418Z,1945
2018-05-10T12:49:04.958Z,1865
2018-05-10T12:50:04.587Z,1995
2018-05-10T12:51:04.323Z,1835
2018-05-10T12:52:04.839Z,2155
2018-05-10T12:53:04.600Z,2065
2018-05-10T12:54:04.889Z,840
2018-05-10T12:55:05.179Z,645
2018-05-10T12:56:05.454Z,620
2018-05-10T12:57:05.041Z,755
2018-05-10T12:58:05.063Z,2040
2018-05-10T12:59:05.315Z,575
2018-05-10T13:00:05.340Z,535
2018-05-10T13:01:05.109Z,500
2018-05-10T13:02:05.192Z,500
2018-05-10T13:03:05.635Z,515
2018-05-10T13:04:05.205Z,525
2018-05-10T13:05:05.496Z,555
2018-05-10T13:06:05.074Z,610
2018-05-10T13:07:05.409Z,740
2018-05-10T13:08:05.583Z,825
2018-05-10T13:09:04.856Z,705
2018-05-10T13:10:04.921Z,665
2018-05-10T13:11:05.752Z,1905
2018-05-10T13:12:05.207Z,2070
2018-05-10T13:13:05.502Z,1470
2018-05-10T13:14:05.262Z,2145
2018-05-10T13:15:05.558Z,690
2018-05-10T13:16:06.117Z,1945
2018-05-10T13:17:05.604Z,2025
2018-05-10T13:18:05.633Z,2150
2018-05-10T13:19:05.671Z,1805
2018-05-10T13:20:05.715Z,1560
2018-05-10T13:21:05.268Z,1715
2018-05-10T13:22:05.778Z,1725
2018-05-10T13:23:06.092Z,590
2018-05-10T13:24:05.845Z,665
2018-05-10T13:25:06.118Z,2250
2018-05-10T13:26:06.153Z,2280
2018-05-10T13:27:05.667Z,2340
2018-05-10T13:28:05.708Z,2350
2018-05-10T13:29:06.530Z,2405
2018-05-10T13:30:05.786Z,2360
2018-05-10T13:31:06.066Z,2370
2018-05-10T13:32:05.839Z,2220
2018-05-10T13:33:06.142Z,2270
2018-05-10T13:34:05.389Z,2260
2018-05-10T13:35:06.184Z,2105
2018-05-10T13:36:06.271Z,1925
2018-05-10T13:37:06.524Z,1900
2018-05-10T13:38:06.544Z,2070
2018-05-10T13:39:06.582Z,2190
2018-05-10T13:40:06.604Z,2265
2018-05-10T13:41:06.516Z,2545
2018-05-10T13:42:06.414Z,2530
2018-05-10T13:43:05.948Z,2285
2018-05-10T13:44:06.489Z,2310
2018-05-10T13:45:06.512Z,2375
2018-05-10T13:46:06.287Z,2465
2018-05-10T13:47:07.060Z,2425
2018-05-10T13:48:06.889Z,2515
2018-05-10T13:49:06.911Z,2595
2018-05-10T13:50:06.683Z,2575
2018-05-10T13:51:06.768Z,2540
2018-05-10T13:52:06.758Z,2505
2018-05-10T13:53:07.412Z,2450
2018-05-10T13:54:07.090Z,2475
2018-05-10T13:55:06.880Z,2355
2018-05-10T13:56:06.637Z,905
2018-05-10T13:57:06.926Z,1000
2018-05-10T13:58:06.986Z,2400
2018-05-10T13:59:07.574Z,2250
2018-05-10T14:00:07.042Z,2255
2018-05-10T14:01:07.175Z,2160